createdAt,value
2022-12-11T00:00:05.022Z,96541.31
2022-12-11T00:02:31.412Z,96543.41
2022-12-11T00:04:57.896Z,96534.69
2022-12-11T00:07:24.295Z,96566.44
2022-12-11T00:09:50.674Z,96554.72
2022-12-11T00:12:17.031Z,96562.75
2022-12-11T00:14:43.381Z,96549.34
2022-12-11T00:17:10.089Z,96560.03
2022-12-11T00:19:36.571Z,96561.19
2022-12-11T00:22:03.239Z,96556.44
2022-12-11T00:24:29.615Z,96542.41
2022-12-11T00:26:56.023Z,96549.72
2022-12-11T00:29:22.381Z,96555.00
2022-12-11T00:31:48.777Z,96553.38
2022-12-11T00:34:15.195Z,96553.91
2022-12-11T00:36:41.611Z,96547.22
2022-12-11T00:39:08.064Z,96554.88
2022-12-11T00:41:34.619Z,96538.75
2022-12-11T00:44:01.037Z,96536.28
2022-12-11T00:46:27.550Z,96550.31
2022-12-11T00:48:53.971Z,96553.63
2022-12-11T00:51:20.432Z,96547.50
2022-12-11T00:53:47.025Z,96537.28
2022-12-11T00:56:19.547Z,96537.81
2022-12-11T00:58:47.235Z,96546.06
2022-12-11T01:01:16.652Z,96545.59
2022-12-11T01:03:43.459Z,96538.47
2022-12-11T01:06:15.323Z,96537.19
2022-12-11T01:08:42.499Z,96540.09
2022-12-11T01:11:11.369Z,96543.28
2022-12-11T01:13:38.972Z,96545.53
2022-12-11T01:16:11.294Z,96546.75
2022-12-11T01:18:38.594Z,96555.00
2022-12-11T01:21:09.800Z,96546.41
2022-12-11T01:23:36.715Z,96546.53
2022-12-11T01:26:11.379Z,96557.50
2022-12-11T01:28:38.353Z,96556.94
2022-12-11T01:31:10.044Z,96554.94
2022-12-11T01:33:37.009Z,96542.56
2022-12-11T01:36:22.889Z,96541.09
2022-12-11T01:38:49.788Z,96559.78
2022-12-11T01:41:18.104Z,96546.91
2022-12-11T01:44:02.932Z,96543.88
2022-12-11T01:46:30.974Z,96528.41
2022-12-11T01:48:58.987Z,96534.16
2022-12-11T01:51:26.915Z,96549.81
2022-12-11T01:53:58.808Z,96539.34
2022-12-11T01:56:25.420Z,96549.81
2022-12-11T01:58:55.115Z,96549.72
2022-12-11T02:01:36.715Z,96553.75
2022-12-11T02:04:04.282Z,96545.28
2022-12-11T02:06:33.996Z,96558.38
2022-12-11T02:09:01.555Z,96557.59
2022-12-11T02:11:57.957Z,96540.34
2022-12-11T02:14:43.522Z,96542.09
2022-12-11T02:17:19.537Z,96555.59
2022-12-11T02:20:01.535Z,96556.31
2022-12-11T02:22:47.801Z,96559.19
2022-12-11T02:25:41.006Z,96551.69
2022-12-11T02:28:34.867Z,96560.06
2022-12-11T02:31:10.584Z,96574.25
2022-12-11T02:33:43.694Z,96575.63
2022-12-11T02:36:10.658Z,96573.25
2022-12-11T02:38:41.692Z,96554.69
2022-12-11T02:41:11.445Z,96572.16
2022-12-11T02:43:39.484Z,96567.16
2022-12-11T02:46:08.032Z,96563.16
2022-12-11T02:48:36.770Z,96553.91
2022-12-11T02:51:06.197Z,96557.22
2022-12-11T02:53:35.500Z,96545.22
2022-12-11T02:56:26.776Z,96540.34
2022-12-11T02:59:02.939Z,96539.50
2022-12-11T03:01:29.351Z,96525.25
2022-12-11T03:03:56.486Z,96542.34
2022-12-11T03:06:32.296Z,96533.25
2022-12-11T03:08:58.791Z,96548.03
2022-12-11T03:11:25.205Z,96535.25
2022-12-11T03:13:53.722Z,96547.19
2022-12-11T03:16:38.872Z,96545.97
2022-12-11T03:19:26.638Z,96550.31
2022-12-11T03:22:22.612Z,96551.75
2022-12-11T03:24:55.004Z,96551.69
2022-12-11T03:27:33.058Z,96542.34
2022-12-11T03:30:05.682Z,96552.00
2022-12-11T03:32:44.502Z,96553.25
2022-12-11T03:35:21.492Z,96551.28
2022-12-11T03:37:49.594Z,96528.50
2022-12-11T03:40:19.224Z,96546.66
2022-12-11T03:42:49.627Z,96546.28
2022-12-11T03:45:18.661Z,96543.56
2022-12-11T03:47:47.300Z,96548.72
2022-12-11T03:50:18.108Z,96548.72
2022-12-11T03:52:46.535Z,96544.63
2022-12-11T03:55:15.104Z,96549.25
2022-12-11T03:57:41.616Z,96539.00
2022-12-11T04:00:12.762Z,96535.22
2022-12-11T04:02:39.845Z,96541.44
2022-12-11T04:05:06.798Z,96544.16
2022-12-11T04:07:33.208Z,96537.94
2022-12-11T04:10:00.358Z,96545.25
2022-12-11T04:12:26.829Z,96544.94
2022-12-11T04:15:02.343Z,96544.72
2022-12-11T04:17:52.908Z,96531.31
2022-12-11T04:20:38.620Z,96527.00
2022-12-11T04:23:33.140Z,96528.00
2022-12-11T04:26:11.604Z,96534.94
2022-12-11T04:28:39.363Z,96529.53
2022-12-11T04:31:06.222Z,96531.09
2022-12-11T04:33:32.654Z,96547.66
2022-12-11T04:36:00.726Z,96534.31
2022-12-11T04:38:27.721Z,96535.56
2022-12-11T04:41:01.716Z,96539.19
2022-12-11T04:43:28.546Z,96539.72
2022-12-11T04:46:05.991Z,96542.25
2022-12-11T04:48:32.734Z,96540.78
2022-12-11T04:50:59.266Z,96538.53
2022-12-11T04:53:26.631Z,96545.41
2022-12-11T04:55:53.104Z,96529.91
2022-12-11T04:58:19.450Z,96528.28
2022-12-11T05:00:46.414Z,96527.81
2022-12-11T05:03:12.996Z,96533.50
2022-12-11T05:05:39.637Z,96525.03
2022-12-11T05:08:06.177Z,96520.00
2022-12-11T05:10:32.591Z,96519.94
2022-12-11T05:12:58.962Z,96514.78
2022-12-11T05:15:25.330Z,96523.16
2022-12-11T05:17:51.686Z,96520.09
2022-12-11T05:20:18.158Z,96515.69
2022-12-11T05:22:44.510Z,96517.72
2022-12-11T05:25:11.210Z,96516.72
2022-12-11T05:27:37.841Z,96502.31
2022-12-11T05:30:04.732Z,96500.81
2022-12-11T05:32:31.128Z,96496.41
2022-12-11T05:34:57.772Z,96504.81
2022-12-11T05:37:24.231Z,96492.81
2022-12-11T05:39:50.588Z,96486.75
2022-12-11T05:42:16.921Z,96503.16
2022-12-11T05:44:43.319Z,96493.13
2022-12-11T05:47:09.667Z,96498.75
2022-12-11T05:49:36.155Z,96499.59
2022-12-11T05:52:02.516Z,96505.44
2022-12-11T05:54:28.871Z,96493.81
2022-12-11T05:56:55.273Z,96487.41
2022-12-11T05:59:21.620Z,96480.19
2022-12-11T06:01:48.093Z,96495.50
2022-12-11T06:04:14.624Z,96480.09
2022-12-11T06:06:41.317Z,96493.19
2022-12-11T06:09:07.940Z,96480.66
2022-12-11T06:11:34.871Z,96500.06
2022-12-11T06:14:02.972Z,96477.81
2022-12-11T06:16:29.437Z,96489.88
2022-12-11T06:18:58.468Z,96484.72
2022-12-11T06:21:29.875Z,96495.63
2022-12-11T06:23:58.595Z,96496.41
2022-12-11T06:26:25.927Z,96496.88
2022-12-11T06:28:52.682Z,96488.28
2022-12-11T06:31:20.183Z,96493.31
2022-12-11T06:33:47.561Z,96497.19
2022-12-11T06:36:17.090Z,96499.41
2022-12-11T06:38:44.245Z,96481.72
2022-12-11T06:41:11.234Z,96509.41
2022-12-11T06:43:40.086Z,96510.72
2022-12-11T06:46:09.218Z,96509.19
2022-12-11T06:48:35.918Z,96511.22
2022-12-11T06:51:10.181Z,96489.25
2022-12-11T06:53:36.903Z,96498.34
2022-12-11T06:56:09.348Z,96512.13
2022-12-11T06:58:37.107Z,96498.47
2022-12-11T07:01:04.885Z,96509.97
2022-12-11T07:03:31.438Z,96494.13
2022-12-11T07:06:02.367Z,96510.78
2022-12-11T07:08:29.645Z,96495.97
2022-12-11T07:11:02.663Z,96484.25
2022-12-11T07:13:29.007Z,96493.38
2022-12-11T07:15:55.359Z,96490.34
2022-12-11T07:18:21.696Z,96496.19
2022-12-11T07:20:48.052Z,96490.06
2022-12-11T07:23:14.383Z,96473.72
2022-12-11T07:25:40.739Z,96486.78
2022-12-11T07:28:09.113Z,96473.25
2022-12-11T07:30:38.289Z,96477.44
2022-12-11T07:33:05.721Z,96475.88
2022-12-11T07:35:34.862Z,96482.34
2022-12-11T07:38:01.344Z,96469.75
2022-12-11T07:40:27.764Z,96476.72
2022-12-11T07:42:54.192Z,96477.44
2022-12-11T07:45:20.593Z,96480.75
2022-12-11T07:47:46.953Z,96485.25
2022-12-11T07:50:13.344Z,96504.44
2022-12-11T07:52:39.687Z,96483.38
2022-12-11T07:55:06.161Z,96498.94
2022-12-11T07:57:32.512Z,96519.13
2022-12-11T07:59:58.854Z,96514.50
2022-12-11T08:02:25.282Z,96524.50
2022-12-11T08:04:51.746Z,96520.38
2022-12-11T08:07:18.080Z,96516.72
2022-12-11T08:09:44.453Z,96507.16
2022-12-11T08:12:11.918Z,96525.34
2022-12-11T08:14:38.259Z,96524.69
2022-12-11T08:17:04.919Z,96513.81
2022-12-11T08:19:31.327Z,96506.34
2022-12-11T08:21:57.733Z,96505.09
2022-12-11T08:24:24.080Z,96514.69
2022-12-11T08:26:50.456Z,96522.69
2022-12-11T08:29:16.993Z,96510.38
2022-12-11T08:31:43.415Z,96522.38
2022-12-11T08:34:13.696Z,96524.41
2022-12-11T08:36:40.189Z,96512.50
2022-12-11T08:39:06.669Z,96513.97
2022-12-11T08:41:33.035Z,96515.22
2022-12-11T08:44:00.382Z,96522.84
2022-12-11T08:46:30.761Z,96504.19
2022-12-11T08:48:58.656Z,96509.91
2022-12-11T08:51:27.109Z,96518.47
2022-12-11T08:53:58.230Z,96521.31
2022-12-11T08:56:25.233Z,96524.16
2022-12-11T08:58:52.483Z,96506.03
2022-12-11T09:01:21.776Z,96507.69
2022-12-11T09:03:49.056Z,96511.28
2022-12-11T09:06:18.142Z,96507.97
2022-12-11T09:08:51.895Z,96507.56
2022-12-11T09:11:21.939Z,96499.91
2022-12-11T09:13:48.816Z,96499.38
2022-12-11T09:16:19.700Z,96508.38
2022-12-11T09:18:47.873Z,96486.69
2022-12-11T09:21:16.939Z,96485.66
2022-12-11T09:23:43.656Z,96495.91
2022-12-11T09:26:16.121Z,96498.78
2022-12-11T09:28:46.737Z,96508.25
2022-12-11T09:31:23.512Z,96490.91
2022-12-11T09:33:52.016Z,96504.75
2022-12-11T09:36:18.940Z,96509.53
2022-12-11T09:38:46.371Z,96513.13
2022-12-11T09:41:21.906Z,96515.41
2022-12-11T09:44:13.111Z,96512.88
2022-12-11T09:46:40.774Z,96507.78
2022-12-11T09:49:20.859Z,96508.06
2022-12-11T09:52:09.965Z,96494.81
2022-12-11T09:54:36.746Z,96484.06
2022-12-11T09:57:14.633Z,96494.97
2022-12-11T10:00:02.723Z,96486.28
2022-12-11T10:02:59.101Z,96494.28
2022-12-11T10:05:45.394Z,96492.28
2022-12-11T10:08:23.681Z,96490.25
2022-12-11T10:11:27.978Z,96490.03
2022-12-11T10:14:25.084Z,96485.91
2022-12-11T10:17:02.517Z,96475.19
2022-12-11T10:19:31.533Z,96474.34
2022-12-11T10:22:00.039Z,96470.97
2022-12-11T10:27:39.249Z,96484.59
2022-12-11T10:30:18.655Z,96483.13
2022-12-11T10:32:44.988Z,96485.13
2022-12-11T10:35:19.966Z,96470.56
2022-12-11T10:37:46.369Z,96475.28
2022-12-11T10:40:13.648Z,96474.19
2022-12-11T10:42:44.158Z,96475.59
2022-12-11T10:45:16.225Z,96465.03
2022-12-11T10:47:42.579Z,96453.53
2022-12-11T10:50:24.922Z,96468.59
2022-12-11T10:52:52.827Z,96463.28
2022-12-11T10:55:24.361Z,96459.16
2022-12-11T10:58:05.701Z,96454.34
2022-12-11T11:00:37.455Z,96456.97
2022-12-11T11:03:07.782Z,96452.53
2022-12-11T11:05:36.395Z,96441.84
2022-12-11T11:08:16.004Z,96452.84
2022-12-11T11:10:55.791Z,96457.16
2022-12-11T11:13:27.794Z,96453.63
2022-12-11T11:16:13.020Z,96441.13
2022-12-11T11:18:41.371Z,96451.81
2022-12-11T11:21:17.609Z,96445.91
2022-12-11T11:23:47.281Z,96442.16
2022-12-11T11:26:15.800Z,96426.81
2022-12-11T11:28:54.656Z,96455.25
2022-12-11T11:31:32.930Z,96437.06
2022-12-11T11:34:06.595Z,96448.06
2022-12-11T11:36:35.896Z,96451.88
2022-12-11T11:39:20.405Z,96449.53
2022-12-11T11:41:54.035Z,96430.66
2022-12-11T11:44:31.358Z,96434.97
2022-12-11T11:47:05.895Z,96438.66
2022-12-11T11:49:52.938Z,96436.09
2022-12-11T11:52:38.884Z,96429.22
2022-12-11T11:55:22.045Z,96421.47
2022-12-11T11:58:07.427Z,96418.44
2022-12-11T12:00:34.255Z,96419.97
2022-12-11T12:03:06.030Z,96421.75
2022-12-11T12:05:44.764Z,96416.13
2022-12-11T12:08:21.233Z,96408.19
2022-12-11T12:10:53.548Z,96411.03
2022-12-11T12:13:50.171Z,96411.56
2022-12-11T12:16:54.823Z,96414.63
2022-12-11T12:19:48.606Z,96422.59
2022-12-11T12:22:39.162Z,96410.81
2022-12-11T12:25:14.616Z,96419.25
2022-12-11T12:27:52.810Z,96418.78
2022-12-11T12:30:23.409Z,96414.41
2022-12-11T12:33:19.724Z,96413.13
2022-12-11T12:36:17.891Z,96413.38
2022-12-11T12:39:13.385Z,96398.78
2022-12-11T12:42:22.742Z,96405.66
2022-12-11T12:45:03.637Z,96389.31
2022-12-11T12:47:34.434Z,96396.72
2022-12-11T12:50:03.098Z,96394.94
2022-12-11T12:52:33.572Z,96395.16
2022-12-11T12:55:14.662Z,96398.44
2022-12-11T12:57:49.493Z,96409.00
2022-12-11T13:00:34.310Z,96403.88
2022-12-11T13:03:20.725Z,96401.78
2022-12-11T13:06:13.387Z,96416.09
2022-12-11T13:08:44.099Z,96403.84
2022-12-11T13:11:12.990Z,96414.53
2022-12-11T13:14:04.141Z,96405.81
2022-12-11T13:16:42.251Z,96404.00
2022-12-11T13:19:23.961Z,96422.19
2022-12-11T13:22:14.755Z,96421.91
2022-12-11T13:24:48.677Z,96423.94
2022-12-11T13:27:35.971Z,96406.06
2022-12-11T13:30:23.181Z,96407.59
2022-12-11T13:32:59.443Z,96417.28
2022-12-11T13:35:26.519Z,96421.59
2022-12-11T13:37:54.101Z,96410.53
2022-12-11T13:40:32.980Z,96420.28
2022-12-11T13:43:03.775Z,96411.09
2022-12-11T13:45:46.431Z,96418.94
2022-12-11T13:48:34.599Z,96426.41
2022-12-11T13:51:01.607Z,96410.50
2022-12-11T13:53:28.462Z,96403.94
2022-12-11T13:56:01.999Z,96420.53
2022-12-11T13:58:29.526Z,96421.31
2022-12-11T14:01:20.493Z,96416.22
2022-12-11T14:03:59.234Z,96418.00
2022-12-11T14:06:27.968Z,96408.25
2022-12-11T14:08:57.696Z,96417.69
2022-12-11T14:11:29.324Z,96413.59
2022-12-11T14:13:59.515Z,96412.06
2022-12-11T14:16:27.553Z,96418.16
2022-12-11T14:18:58.293Z,96416.63
2022-12-11T14:21:25.713Z,96419.72
2022-12-11T14:24:00.304Z,96421.69
2022-12-11T14:26:29.775Z,96411.97
2022-12-11T14:28:56.377Z,96418.59
2022-12-11T14:31:34.388Z,96425.56
2022-12-11T14:34:14.297Z,96429.91
2022-12-11T14:36:42.014Z,96420.41
2022-12-11T14:39:13.169Z,96431.81
2022-12-11T14:41:45.756Z,96434.94
2022-12-11T14:44:15.859Z,96428.56
2022-12-11T14:46:51.463Z,96445.69
2022-12-11T14:49:33.386Z,96442.84
2022-12-11T14:52:01.014Z,96441.03
2022-12-11T14:54:36.385Z,96444.38
2022-12-11T14:57:06.555Z,96442.06
2022-12-11T14:59:40.977Z,96433.91
2022-12-11T15:02:26.968Z,96443.84
2022-12-11T15:05:22.035Z,96446.16
2022-12-11T15:07:59.599Z,96455.34
2022-12-11T15:10:35.468Z,96451.00
2022-12-11T15:13:03.354Z,96443.47
2022-12-11T15:15:33.111Z,96453.22
2022-12-11T15:18:22.397Z,96451.63
2022-12-11T15:20:58.650Z,96465.13
2022-12-11T15:23:25.654Z,96458.19
2022-12-11T15:25:54.834Z,96465.09
2022-12-11T15:28:37.163Z,96472.97
2022-12-11T15:31:07.051Z,96455.34
2022-12-11T15:33:34.864Z,96462.59
2022-12-11T15:36:07.100Z,96461.84
2022-12-11T15:38:35.050Z,96469.25
2022-12-11T15:41:02.778Z,96472.81
2022-12-11T15:43:34.508Z,96458.50
2022-12-11T15:46:02.667Z,96471.00
2022-12-11T15:48:29.037Z,96471.72
2022-12-11T15:50:55.403Z,96471.97
2022-12-11T15:53:21.728Z,96474.03
2022-12-11T15:55:48.544Z,96462.50
2022-12-11T15:58:18.980Z,96456.81
2022-12-11T16:00:45.721Z,96467.06
2022-12-11T16:03:14.546Z,96454.53
2022-12-11T16:05:42.226Z,96471.72
2022-12-11T16:08:14.897Z,96476.28
2022-12-11T16:10:43.337Z,96478.06
2022-12-11T16:13:11.132Z,96470.97
2022-12-11T16:15:43.522Z,96468.66
2022-12-11T16:18:13.288Z,96461.00
2022-12-11T16:20:41.073Z,96455.38
2022-12-11T16:23:08.102Z,96467.88
2022-12-11T16:25:37.565Z,96456.13
2022-12-11T16:28:04.171Z,96453.56
2022-12-11T16:30:30.925Z,96460.44
2022-12-11T16:32:57.579Z,96459.03
2022-12-11T16:35:23.932Z,96458.97
2022-12-11T16:37:51.619Z,96457.72
2022-12-11T16:40:18.537Z,96444.69
2022-12-11T16:42:45.659Z,96446.50
2022-12-11T16:45:23.612Z,96455.69
2022-12-11T16:47:49.985Z,96448.22
2022-12-11T16:50:17.366Z,96463.59
2022-12-11T16:52:44.499Z,96465.31
2022-12-11T16:55:13.253Z,96453.63
2022-12-11T16:57:40.457Z,96458.19
2022-12-11T17:00:08.993Z,96450.53
2022-12-11T17:02:36.304Z,96456.69
2022-12-11T17:05:02.810Z,96460.78
2022-12-11T17:07:31.611Z,96454.13
2022-12-11T17:09:58.052Z,96463.03
2022-12-11T17:12:27.668Z,96448.69
2022-12-11T17:14:54.908Z,96454.31
2022-12-11T17:17:21.388Z,96445.69
2022-12-11T17:19:47.756Z,96451.09
2022-12-11T17:22:14.193Z,96457.19
2022-12-11T17:24:40.597Z,96446.44
2022-12-11T17:27:07.021Z,96446.94
2022-12-11T17:29:33.453Z,96441.88
2022-12-11T17:31:59.858Z,96443.66
2022-12-11T17:34:26.205Z,96432.66
2022-12-11T17:36:52.605Z,96455.91
2022-12-11T17:39:18.995Z,96440.34
2022-12-11T17:41:45.411Z,96449.00
2022-12-11T17:44:11.787Z,96450.03
2022-12-11T17:46:38.318Z,96453.63
2022-12-11T17:49:05.397Z,96452.09
2022-12-11T17:51:31.789Z,96444.47
2022-12-11T17:53:58.393Z,96441.31
2022-12-11T17:56:25.434Z,96445.69
2022-12-11T17:58:51.958Z,96441.56
2022-12-11T18:01:19.316Z,96440.59
2022-12-11T18:03:46.850Z,96449.00
2022-12-11T18:06:15.123Z,96435.44
2022-12-11T18:08:42.615Z,96431.81
2022-12-11T18:11:21.674Z,96448.97
2022-12-11T18:13:49.707Z,96449.97
2022-12-11T18:16:19.356Z,96443.00
2022-12-11T18:18:47.580Z,96454.22
2022-12-11T18:21:16.750Z,96456.50
2022-12-11T18:23:44.104Z,96451.91
2022-12-11T18:26:11.469Z,96442.19
2022-12-11T18:28:37.860Z,96455.00
2022-12-11T18:31:04.336Z,96446.81
2022-12-11T18:33:31.118Z,96450.97
2022-12-11T18:35:57.643Z,96443.00
2022-12-11T18:38:24.066Z,96436.63
2022-12-11T18:40:50.407Z,96456.78
2022-12-11T18:43:16.765Z,96458.38
2022-12-11T18:45:45.070Z,96444.56
2022-12-11T18:48:12.757Z,96456.78
2022-12-11T18:50:47.634Z,96461.69
2022-12-11T18:53:14.388Z,96441.72
2022-12-11T18:55:45.030Z,96447.63
2022-12-11T18:58:12.970Z,96459.91
2022-12-11T19:00:40.960Z,96450.22
2022-12-11T19:03:08.773Z,96445.25
2022-12-11T19:05:36.064Z,96451.47
2022-12-11T19:08:03.560Z,96451.91
2022-12-11T19:10:29.960Z,96440.41
2022-12-11T19:12:56.316Z,96447.75
2022-12-11T19:15:24.137Z,96451.13
2022-12-11T19:17:50.749Z,96454.47
2022-12-11T19:20:48.589Z,96447.78
2022-12-11T19:23:04.065Z,96459.09
2022-12-11T19:25:30.455Z,96454.22
2022-12-11T19:27:56.989Z,96443.69
2022-12-11T19:30:23.898Z,96446.31
2022-12-11T19:32:50.318Z,96435.38
2022-12-11T19:35:18.027Z,96439.69
2022-12-11T19:37:44.814Z,96438.91
2022-12-11T19:40:11.404Z,96456.31
2022-12-11T19:42:37.804Z,96442.78
2022-12-11T19:45:04.572Z,96436.69
2022-12-11T19:47:30.907Z,96445.94
2022-12-11T19:49:57.283Z,96433.41
2022-12-11T19:52:23.679Z,96435.69
2022-12-11T19:54:50.079Z,96429.84
2022-12-11T19:57:16.494Z,96433.03
2022-12-11T19:59:42.840Z,96432.81
2022-12-11T20:02:11.574Z,96436.66
2022-12-11T20:04:38.076Z,96442.84
2022-12-11T20:07:04.488Z,96439.00
2022-12-11T20:09:30.916Z,96435.69
2022-12-11T20:11:57.271Z,96448.22
2022-12-11T20:14:25.837Z,96443.81
2022-12-11T20:17:10.861Z,96435.53
2022-12-11T20:19:39.181Z,96437.38
2022-12-11T20:22:05.655Z,96450.44
2022-12-11T20:24:32.123Z,96442.75
2022-12-11T20:26:58.455Z,96438.13
2022-12-11T20:29:24.828Z,96447.38
2022-12-11T20:31:51.502Z,96453.47
2022-12-11T20:34:18.112Z,96450.59
2022-12-11T20:36:44.537Z,96458.31
2022-12-11T20:39:10.947Z,96441.72
2022-12-11T20:41:37.387Z,96458.84
2022-12-11T20:44:03.791Z,96445.78
2022-12-11T20:46:30.159Z,96444.25
2022-12-11T20:48:58.710Z,96458.28
2022-12-11T20:51:26.586Z,96452.47
2022-12-11T20:54:01.099Z,96448.63
2022-12-11T20:56:29.983Z,96439.13
2022-12-11T20:58:57.972Z,96439.81
2022-12-11T21:01:26.456Z,96437.00
2022-12-11T21:03:53.519Z,96441.88
2022-12-11T21:06:21.546Z,96426.75
2022-12-11T21:08:47.994Z,96438.81
2022-12-11T21:11:14.455Z,96452.16
2022-12-11T21:13:40.940Z,96449.66
2022-12-11T21:16:08.356Z,96447.88
2022-12-11T21:18:34.896Z,96449.41
2022-12-11T21:21:01.283Z,96446.38
2022-12-11T21:23:28.036Z,96439.97
2022-12-11T21:25:54.560Z,96434.28
2022-12-11T21:28:21.721Z,96442.75
2022-12-11T21:30:48.154Z,96445.56
2022-12-11T21:33:14.577Z,96447.06
2022-12-11T21:35:40.936Z,96441.16
2022-12-11T21:38:07.560Z,96448.06
2022-12-11T21:40:34.050Z,96453.16
2022-12-11T21:43:00.394Z,96442.38
2022-12-11T21:45:59.157Z,96444.13
2022-12-11T21:48:13.759Z,96454.41
2022-12-11T21:50:40.879Z,96457.97
2022-12-11T21:53:07.314Z,96444.91
2022-12-11T21:55:33.756Z,96455.69
2022-12-11T21:58:00.116Z,96440.53
2022-12-11T22:00:28.129Z,96439.38
2022-12-11T22:02:54.583Z,96454.66
2022-12-11T22:05:21.052Z,96447.44
2022-12-11T22:07:47.476Z,96464.66
2022-12-11T22:10:13.999Z,96457.03
2022-12-11T22:12:40.447Z,96463.66
2022-12-11T22:15:07.715Z,96461.88
2022-12-11T22:17:34.139Z,96459.63
2022-12-11T22:20:00.496Z,96464.72
2022-12-11T22:22:26.858Z,96470.28
2022-12-11T22:24:53.207Z,96456.22
2022-12-11T22:27:23.609Z,96453.38
2022-12-11T22:29:50.444Z,96459.22
2022-12-11T22:32:16.839Z,96467.19
2022-12-11T22:34:43.214Z,96476.28
2022-12-11T22:37:09.584Z,96469.41
2022-12-11T22:39:35.921Z,96472.53
2022-12-11T22:42:02.269Z,96458.81
2022-12-11T22:44:28.636Z,96466.19
2022-12-11T22:46:54.985Z,96477.97
2022-12-11T22:49:21.377Z,96462.59
2022-12-11T22:51:48.086Z,96462.34
2022-12-11T22:54:14.505Z,96474.13
2022-12-11T22:56:40.957Z,96471.53
2022-12-11T22:59:07.527Z,96455.38
2022-12-11T23:01:34.167Z,96469.25
2022-12-11T23:04:00.639Z,96456.44
2022-12-11T23:06:27.144Z,96465.66
2022-12-11T23:08:56.785Z,96465.44
2022-12-11T23:11:36.305Z,96460.00
2022-12-11T23:14:04.757Z,96457.63
2022-12-11T23:16:31.351Z,96474.03
2022-12-11T23:18:58.375Z,96469.72
2022-12-11T23:21:26.601Z,96445.38
2022-12-11T23:23:54.054Z,96471.50
2022-12-11T23:26:20.862Z,96475.03
2022-12-11T23:28:47.768Z,96468.22
2022-12-11T23:31:14.478Z,96475.59
2022-12-11T23:33:40.974Z,96477.09
2022-12-11T23:36:08.880Z,96467.69
2022-12-11T23:38:35.519Z,96460.00
2022-12-11T23:41:03.022Z,96464.59
2022-12-11T23:43:29.460Z,96465.59
2022-12-11T23:45:55.966Z,96480.44
2022-12-11T23:48:22.465Z,96482.72
2022-12-11T23:50:48.835Z,96461.47
2022-12-11T23:53:15.520Z,96463.28
2022-12-11T23:55:44.687Z,96482.16
2022-12-11T23:58:11.765Z,96478.63
